createdAt,value
2019-03-28T00:00:39.991Z,87.00
2019-03-28T00:03:08.133Z,86.40
2019-03-28T00:05:36.417Z,86.50
2019-03-28T00:08:04.606Z,86.80
2019-03-28T00:10:32.817Z,86.80
2019-03-28T00:13:01.045Z,85.90
2019-03-28T00:15:29.175Z,86.50
2019-03-28T00:17:57.352Z,86.50
2019-03-28T00:20:25.477Z,87.00
2019-03-28T00:22:59.405Z,86.30
2019-03-28T00:25:27.567Z,86.00
2019-03-28T00:27:55.689Z,86.10
2019-03-28T00:30:23.958Z,86.10
2019-03-28T00:32:52.399Z,86.40
2019-03-28T00:35:20.719Z,86.40
2019-03-28T00:37:48.819Z,86.10
2019-03-28T00:40:16.996Z,86.30
2019-03-28T00:42:45.175Z,86.10
2019-03-28T00:45:14.371Z,86.60
2019-03-28T00:47:42.503Z,87.20
2019-03-28T00:50:11.659Z,88.00
2019-03-28T00:52:39.787Z,88.80
2019-03-28T00:55:07.924Z,87.90
2019-03-28T00:57:36.064Z,88.30
2019-03-28T01:00:05.267Z,87.70
2019-03-28T01:02:33.350Z,87.10
2019-03-28T01:05:01.605Z,86.40
2019-03-28T01:07:29.748Z,86.10
2019-03-28T01:09:57.942Z,86.20
2019-03-28T01:12:26.210Z,86.50
2019-03-28T01:14:54.406Z,86.80
2019-03-28T01:17:22.695Z,87.10
2019-03-28T01:19:50.849Z,87.90
2019-03-28T01:22:18.996Z,87.20
2019-03-28T01:24:47.185Z,87.80
2019-03-28T01:27:15.317Z,87.40
2019-03-28T01:29:43.498Z,89.00
2019-03-28T01:32:11.628Z,87.90
2019-03-28T01:34:39.808Z,88.30
2019-03-28T01:37:08.016Z,88.10
2019-03-28T01:39:36.238Z,88.30
2019-03-28T01:42:04.395Z,88.10
2019-03-28T01:44:32.664Z,88.40
2019-03-28T01:47:00.876Z,88.90
2019-03-28T01:49:28.992Z,89.50
2019-03-28T01:51:57.319Z,89.10
2019-03-28T01:54:25.484Z,89.50
2019-03-28T01:56:53.651Z,90.30
2019-03-28T01:59:22.020Z,90.60
2019-03-28T02:01:50.424Z,89.80
2019-03-28T02:04:18.539Z,90.00
2019-03-28T02:06:46.667Z,90.20
2019-03-28T02:09:14.846Z,89.20
2019-03-28T02:11:42.983Z,87.80
2019-03-28T02:14:11.081Z,88.60
2019-03-28T02:16:39.344Z,89.30
2019-03-28T02:19:07.488Z,88.70
2019-03-28T02:21:36.217Z,89.00
2019-03-28T02:24:04.360Z,88.50
2019-03-28T02:26:32.528Z,88.90
2019-03-28T02:29:00.636Z,89.30
2019-03-28T02:31:28.953Z,89.70
2019-03-28T02:33:57.136Z,90.00
2019-03-28T02:36:25.258Z,90.30
2019-03-28T02:38:53.357Z,91.20
2019-03-28T02:41:21.716Z,91.00
2019-03-28T02:43:49.919Z,91.30
2019-03-28T02:46:18.021Z,92.00
2019-03-28T02:48:46.314Z,92.30
2019-03-28T02:51:14.477Z,92.50
2019-03-28T02:53:42.686Z,93.30
2019-03-28T02:56:10.863Z,94.20
2019-03-28T02:58:39.170Z,94.20
2019-03-28T03:01:07.273Z,94.20
2019-03-28T03:03:35.669Z,94.70
2019-03-28T03:06:03.934Z,94.00
2019-03-28T03:08:32.083Z,94.20
2019-03-28T03:11:00.255Z,94.00
2019-03-28T03:13:28.416Z,94.30
2019-03-28T03:15:56.871Z,94.20
2019-03-28T03:18:25.314Z,93.80
2019-03-28T03:20:53.685Z,94.90
2019-03-28T03:23:21.780Z,93.50
2019-03-28T03:25:49.946Z,93.10
2019-03-28T03:28:18.139Z,93.40
2019-03-28T03:30:46.599Z,92.70
2019-03-28T03:33:15.045Z,91.50
2019-03-28T03:35:43.150Z,91.00
2019-03-28T03:38:11.298Z,91.60
2019-03-28T03:40:39.636Z,91.50
2019-03-28T03:43:07.813Z,91.80
2019-03-28T03:45:36.036Z,91.60
2019-03-28T03:48:04.132Z,91.20
2019-03-28T03:50:32.375Z,91.80
2019-03-28T03:53:00.504Z,91.60
2019-03-28T03:55:28.597Z,92.30
2019-03-28T03:58:13.692Z,92.60
2019-03-28T04:00:34.328Z,92.70
2019-03-28T04:03:03.220Z,92.80
2019-03-28T04:05:31.586Z,92.10
2019-03-28T04:08:00.134Z,92.40
2019-03-28T04:10:28.517Z,91.50
2019-03-28T04:12:56.727Z,91.00
2019-03-28T04:15:24.843Z,91.00
2019-03-28T04:17:53.002Z,89.70
2019-03-28T04:20:21.161Z,89.50
2019-03-28T04:22:49.307Z,88.20
2019-03-28T04:25:17.472Z,88.00
2019-03-28T04:27:46.764Z,88.20
2019-03-28T04:30:15.143Z,87.50
2019-03-28T04:32:43.273Z,87.10
2019-03-28T04:35:11.460Z,86.90
2019-03-28T04:37:39.688Z,86.50
2019-03-28T04:40:08.533Z,85.90
2019-03-28T04:42:37.141Z,85.40
2019-03-28T04:45:06.377Z,85.20
2019-03-28T04:47:34.632Z,85.30
2019-03-28T04:50:03.089Z,84.20
2019-03-28T04:52:32.060Z,84.10
2019-03-28T04:55:00.439Z,83.20
2019-03-28T04:57:29.145Z,82.60
2019-03-28T04:59:57.878Z,82.20
2019-03-28T05:02:26.110Z,81.80
2019-03-28T05:04:54.322Z,81.70
2019-03-28T05:07:22.594Z,81.30
2019-03-28T05:09:50.807Z,81.10
2019-03-28T05:12:18.921Z,81.60
2019-03-28T05:14:47.127Z,81.70
2019-03-28T05:17:15.313Z,81.00
2019-03-28T05:19:43.454Z,80.20
2019-03-28T05:22:11.685Z,79.70
2019-03-28T05:24:39.841Z,79.40
2019-03-28T05:27:07.947Z,80.80
2019-03-28T05:29:36.158Z,81.30
2019-03-28T05:32:04.448Z,80.60
2019-03-28T05:34:32.679Z,80.50
2019-03-28T05:37:00.803Z,81.20
2019-03-28T05:39:28.980Z,80.50
2019-03-28T05:41:57.189Z,79.90
2019-03-28T05:44:25.445Z,80.00
2019-03-28T05:46:53.679Z,80.20
2019-03-28T05:49:21.763Z,80.20
2019-03-28T05:51:50.304Z,79.50
2019-03-28T05:54:18.593Z,79.80
2019-03-28T05:56:46.770Z,79.40
2019-03-28T05:59:15.028Z,79.50
2019-03-28T06:01:43.182Z,79.30
2019-03-28T06:04:11.401Z,75.50
2019-03-28T06:06:39.484Z,76.30
2019-03-28T06:09:07.829Z,74.70
2019-03-28T06:11:36.064Z,74.50
2019-03-28T06:14:04.249Z,74.50
2019-03-28T06:16:32.465Z,74.40
2019-03-28T06:19:00.623Z,74.40
2019-03-28T06:21:28.842Z,74.80
2019-03-28T06:23:57.028Z,73.00
2019-03-28T06:26:25.136Z,72.30
2019-03-28T06:28:53.294Z,71.00
2019-03-28T06:31:21.506Z,70.80
2019-03-28T06:33:49.681Z,71.10
2019-03-28T06:36:17.940Z,70.20
2019-03-28T06:38:46.057Z,67.60
2019-03-28T06:41:14.261Z,68.80
2019-03-28T06:43:42.608Z,67.00
2019-03-28T06:46:10.806Z,66.10
2019-03-28T06:48:38.939Z,68.20
2019-03-28T06:51:07.134Z,66.20
2019-03-28T06:53:35.270Z,65.70
2019-03-28T06:56:03.526Z,65.00
2019-03-28T06:58:31.646Z,64.90
2019-03-28T07:00:59.854Z,64.00
2019-03-28T07:03:27.978Z,62.90
2019-03-28T07:05:56.250Z,62.00
2019-03-28T07:08:25.350Z,61.90
2019-03-28T07:10:53.573Z,61.40
2019-03-28T07:13:21.669Z,61.20
2019-03-28T07:15:49.911Z,61.30
2019-03-28T07:18:18.006Z,60.70
2019-03-28T07:20:47.863Z,61.90
2019-03-28T07:23:16.090Z,61.30
2019-03-28T07:25:44.463Z,61.90
2019-03-28T07:46:15.097Z,57.30
2019-03-28T07:48:43.470Z,58.10
2019-03-28T07:51:11.758Z,58.40
2019-03-28T07:53:40.266Z,57.40
2019-03-28T07:56:14.471Z,58.30
2019-03-28T07:58:44.236Z,58.10
2019-03-28T08:01:12.694Z,57.40
2019-03-28T08:03:41.231Z,57.00
2019-03-28T08:06:12.774Z,57.10
2019-03-28T08:08:56.258Z,58.90
2019-03-28T08:11:22.253Z,56.80
2019-03-28T08:13:50.529Z,55.60
2019-03-28T08:16:20.697Z,54.80
2019-03-28T08:18:48.915Z,53.60
2019-03-28T08:21:17.060Z,53.20
2019-03-28T08:23:45.172Z,54.10
2019-03-28T08:26:13.500Z,53.80
2019-03-28T08:29:11.355Z,53.90
2019-03-28T08:31:42.380Z,54.40
2019-03-28T08:34:10.640Z,51.40
2019-03-28T08:36:39.129Z,51.80
2019-03-28T08:39:07.220Z,52.50
2019-03-28T08:41:35.384Z,52.70
2019-03-28T08:44:03.485Z,51.00
2019-03-28T08:46:31.669Z,51.50
2019-03-28T08:48:59.769Z,51.00
2019-03-28T08:51:27.917Z,50.90
2019-03-28T08:53:56.015Z,49.90
2019-03-28T08:56:24.140Z,50.50
2019-03-28T08:58:52.361Z,50.70
2019-03-28T09:04:08.522Z,48.70
2019-03-28T09:06:36.644Z,49.00
2019-03-28T09:09:08.114Z,49.10
2019-03-28T09:11:36.321Z,49.50
2019-03-28T09:14:04.549Z,48.10
2019-03-28T09:16:32.654Z,48.60
2019-03-28T09:21:46.726Z,48.50
2019-03-28T09:24:14.896Z,48.70
2019-03-28T09:26:43.012Z,48.70
2019-03-28T09:29:11.152Z,48.40
2019-03-28T09:31:39.245Z,48.50
2019-03-28T09:34:26.535Z,49.20
2019-03-28T09:36:54.637Z,49.80
2019-03-28T09:39:24.846Z,49.00
2019-03-28T09:41:52.755Z,48.70
2019-03-28T09:44:20.838Z,48.20
2019-03-28T09:46:48.993Z,49.20
2019-03-28T09:49:17.109Z,47.80
2019-03-28T09:51:45.265Z,46.60
2019-03-28T09:54:13.492Z,47.80
2019-03-28T09:56:41.671Z,48.50
2019-03-28T09:59:09.728Z,49.30
2019-03-28T10:01:37.848Z,48.50
2019-03-28T10:04:06.620Z,48.50
2019-03-28T10:06:34.839Z,48.90
2019-03-28T10:09:04.629Z,48.20
2019-03-28T10:11:32.731Z,47.90
2019-03-28T10:14:00.866Z,47.80
2019-03-28T10:16:29.034Z,48.70
2019-03-28T10:18:57.179Z,48.90
2019-03-28T10:21:25.339Z,48.40
2019-03-28T10:23:53.525Z,47.40
2019-03-28T10:26:21.666Z,46.20
2019-03-28T10:28:49.745Z,46.30
2019-03-28T10:31:17.875Z,46.20
2019-03-28T10:33:45.961Z,44.70
2019-03-28T10:36:14.035Z,44.80
2019-03-28T10:38:42.138Z,44.10
2019-03-28T10:41:10.244Z,44.50
2019-03-28T10:43:38.316Z,44.40
2019-03-28T10:46:06.401Z,44.50
2019-03-28T10:48:34.624Z,44.30
2019-03-28T10:51:02.743Z,43.20
2019-03-28T10:53:30.880Z,42.10
2019-03-28T10:55:58.991Z,42.40
2019-03-28T10:58:27.121Z,43.10
2019-03-28T11:00:56.434Z,43.30
2019-03-28T11:03:24.674Z,42.70
2019-03-28T11:05:52.915Z,42.80
2019-03-28T11:08:20.991Z,43.70
2019-03-28T11:10:49.202Z,44.10
2019-03-28T11:13:17.273Z,44.40
2019-03-28T11:15:45.365Z,43.50
2019-03-28T11:18:13.877Z,43.30
2019-03-28T11:20:42.024Z,42.50
2019-03-28T11:23:10.196Z,43.10
2019-03-28T11:25:38.366Z,42.20
2019-03-28T11:28:06.600Z,42.10
2019-03-28T11:30:34.645Z,41.80
2019-03-28T11:33:06.213Z,42.40
2019-03-28T11:35:32.868Z,42.70
2019-03-28T11:38:01.041Z,43.50
2019-03-28T11:40:29.204Z,44.70
2019-03-28T11:42:57.288Z,42.80
2019-03-28T11:45:27.000Z,42.00
2019-03-28T11:47:55.357Z,41.60
2019-03-28T11:50:23.501Z,41.70
2019-03-28T11:52:51.604Z,40.50
2019-03-28T11:55:19.672Z,40.40
2019-03-28T11:57:47.844Z,40.10
2019-03-28T12:00:17.280Z,40.90
2019-03-28T12:02:45.428Z,40.60
2019-03-28T12:05:13.550Z,40.50
2019-03-28T12:07:41.694Z,41.20
2019-03-28T12:10:12.001Z,40.90
2019-03-28T12:12:40.108Z,40.80
2019-03-28T12:15:08.731Z,41.30
2019-03-28T12:17:36.866Z,41.70
2019-03-28T12:20:05.856Z,42.30
2019-03-28T12:22:34.027Z,40.70
2019-03-28T12:25:02.174Z,40.80
2019-03-28T12:27:30.277Z,41.00
2019-03-28T12:29:58.370Z,41.20
2019-03-28T12:32:26.471Z,40.70
2019-03-28T12:34:54.621Z,40.50
2019-03-28T12:37:22.753Z,39.40
2019-03-28T12:39:50.888Z,39.40
2019-03-28T12:42:19.052Z,39.30
2019-03-28T12:44:56.949Z,38.70
2019-03-28T12:47:17.201Z,37.50
2019-03-28T12:49:45.301Z,38.80
2019-03-28T12:52:13.380Z,39.20
2019-03-28T12:54:44.088Z,38.30
2019-03-28T12:57:14.234Z,39.00
2019-03-28T12:59:41.295Z,39.70
2019-03-28T13:02:09.425Z,40.10
2019-03-28T13:04:37.614Z,41.10
2019-03-28T13:07:06.313Z,41.20
2019-03-28T13:10:07.051Z,41.60
2019-03-28T13:12:35.134Z,41.80
2019-03-28T13:15:03.876Z,41.20
2019-03-28T13:17:32.047Z,41.40
2019-03-28T13:20:00.385Z,40.70
2019-03-28T13:22:28.613Z,40.60
2019-03-28T13:24:57.030Z,41.10
2019-03-28T13:27:26.344Z,40.60
2019-03-28T13:29:55.158Z,40.50
2019-03-28T13:32:23.285Z,41.10
2019-03-28T13:34:54.313Z,41.00
2019-03-28T13:37:32.876Z,41.30
2019-03-28T13:40:01.116Z,39.90
2019-03-28T14:13:43.475Z,37.70
2019-03-28T14:16:18.865Z,36.40
2019-03-28T14:19:11.658Z,37.00
2019-03-28T14:21:50.937Z,39.00
2019-03-28T14:24:19.271Z,39.10
2019-03-28T14:26:49.700Z,37.10
2019-03-28T14:29:17.892Z,36.40
2019-03-28T14:31:56.179Z,35.90
2019-03-28T14:35:14.572Z,34.60
2019-03-28T14:37:42.807Z,34.30
2019-03-28T14:40:11.364Z,35.40
2019-03-28T14:42:40.799Z,36.10
2019-03-28T14:45:09.081Z,36.30
2019-03-28T14:47:37.124Z,36.50
2019-03-28T14:50:07.027Z,36.00
2019-03-28T14:52:38.196Z,36.10
2019-03-28T14:59:32.041Z,37.00
2019-03-28T15:01:50.334Z,37.50
2019-03-28T15:04:18.698Z,36.70
2019-03-28T15:06:46.901Z,38.10
2019-03-28T15:09:19.789Z,37.40
2019-03-28T15:11:48.442Z,37.90
2019-03-28T15:14:16.637Z,39.10
2019-03-28T15:16:57.815Z,37.60
2019-03-28T15:19:26.447Z,35.90
2019-03-28T15:21:54.607Z,36.00
2019-03-28T15:24:22.786Z,35.70
2019-03-28T15:26:50.953Z,36.20
2019-03-28T15:29:19.250Z,34.60
2019-03-28T15:31:47.431Z,34.10
2019-03-28T15:34:15.651Z,32.30
2019-03-28T15:36:43.847Z,32.80
2019-03-28T15:39:12.002Z,32.20
2019-03-28T15:41:40.373Z,32.00
2019-03-28T15:44:08.533Z,31.70
2019-03-28T15:46:36.661Z,32.90
2019-03-28T15:49:04.838Z,33.70
2019-03-28T15:51:32.975Z,35.60
2019-03-28T15:54:01.109Z,36.20
2019-03-28T15:56:29.198Z,36.70
2019-03-28T15:58:57.397Z,37.00
2019-03-28T16:01:25.567Z,37.60
2019-03-28T16:03:53.670Z,38.60
2019-03-28T16:06:23.980Z,38.50
2019-03-28T16:08:52.256Z,39.60
2019-03-28T16:11:28.976Z,39.90
2019-03-28T16:13:54.512Z,40.10
2019-03-28T16:16:22.645Z,40.40
2019-03-28T16:18:50.879Z,40.80
2019-03-28T16:21:19.461Z,41.30
2019-03-28T16:23:47.930Z,41.70
2019-03-28T16:26:16.253Z,43.10
2019-03-28T16:28:44.461Z,42.10
2019-03-28T16:31:12.983Z,42.50
2019-03-28T16:33:41.183Z,42.80
2019-03-28T16:36:09.687Z,42.70
2019-03-28T16:38:38.322Z,42.60
2019-03-28T16:41:06.850Z,42.30
2019-03-28T16:44:06.132Z,42.60
2019-03-28T16:46:34.463Z,43.20
2019-03-28T16:49:02.747Z,43.70
2019-03-28T16:51:34.813Z,45.90
2019-03-28T16:54:07.961Z,45.30
2019-03-28T16:56:38.357Z,44.60
2019-03-28T16:59:06.614Z,45.00
2019-03-28T17:01:34.998Z,45.10
2019-03-28T17:04:04.518Z,45.20
2019-03-28T17:06:33.731Z,45.30
2019-03-28T17:09:03.821Z,45.80
2019-03-28T17:11:31.922Z,45.80
2019-03-28T17:14:05.283Z,45.30
2019-03-28T17:16:36.552Z,45.50
2019-03-28T17:20:14.962Z,45.40
2019-03-28T17:30:07.220Z,45.70
2019-03-28T17:32:36.740Z,46.60
2019-03-28T17:35:05.996Z,46.60
2019-03-28T17:37:58.972Z,46.80
2019-03-28T17:40:36.388Z,47.40
2019-03-28T17:43:05.690Z,49.00
2019-03-28T17:45:34.031Z,48.50
2019-03-28T17:48:23.313Z,48.80
2019-03-28T17:50:51.768Z,49.30
2019-03-28T17:53:24.077Z,49.00
2019-03-28T17:55:52.548Z,49.60
2019-03-28T17:58:23.161Z,47.90
2019-03-28T18:00:57.208Z,48.60
2019-03-28T18:03:37.065Z,48.10
2019-03-28T18:06:28.121Z,49.20
2019-03-28T18:09:15.685Z,49.70
2019-03-28T18:12:12.241Z,49.50
2019-03-28T18:14:49.689Z,50.10
2019-03-28T18:17:13.434Z,49.80
2019-03-28T18:19:41.672Z,49.00
2019-03-28T18:22:09.880Z,48.90
2019-03-28T18:24:38.010Z,49.20
2019-03-28T18:27:47.614Z,49.30
2019-03-28T18:30:21.639Z,49.60
2019-03-28T18:32:52.791Z,49.80
2019-03-28T18:35:21.391Z,50.50
2019-03-28T18:37:49.591Z,50.90
2019-03-28T18:40:17.691Z,50.60
2019-03-28T18:42:50.745Z,50.70
2019-03-28T18:45:28.965Z,51.40
2019-03-28T18:47:57.254Z,51.50
2019-03-28T18:50:25.786Z,52.40
2019-03-28T18:52:54.137Z,52.60
2019-03-28T18:55:22.558Z,52.70
2019-03-28T18:57:51.130Z,52.40
2019-03-28T19:00:26.482Z,52.60
2019-03-28T19:02:55.167Z,52.90
2019-03-28T19:05:23.308Z,53.80
2019-03-28T19:07:51.565Z,52.90
2019-03-28T19:10:20.056Z,53.20
2019-03-28T19:12:48.768Z,53.30
2019-03-28T19:15:17.256Z,53.20
2019-03-28T19:17:45.641Z,53.60
2019-03-28T19:20:14.296Z,54.40
2019-03-28T19:22:42.616Z,54.00
2019-03-28T19:25:11.161Z,54.20
2019-03-28T19:27:39.286Z,54.30
2019-03-28T19:30:09.784Z,53.70
2019-03-28T19:32:38.141Z,53.60
2019-03-28T19:35:07.492Z,53.50
2019-03-28T19:37:36.351Z,53.60
2019-03-28T19:40:06.959Z,53.80
2019-03-28T19:42:35.173Z,54.00
2019-03-28T19:45:03.639Z,53.90
2019-03-28T19:47:31.898Z,54.00
2019-03-28T19:50:00.094Z,54.20
2019-03-28T19:52:29.570Z,54.60
2019-03-28T19:54:57.762Z,54.50
2019-03-28T19:57:26.255Z,54.90
2019-03-28T19:59:58.621Z,54.90
2019-03-28T20:02:27.104Z,55.90
2019-03-28T20:05:01.191Z,55.70
2019-03-28T20:07:30.283Z,55.50
2019-03-28T20:09:58.398Z,55.20
2019-03-28T20:12:29.469Z,56.00
2019-03-28T20:16:02.702Z,55.80
2019-03-28T20:19:34.767Z,56.00
2019-03-28T20:31:43.198Z,56.80
2019-03-28T20:34:11.420Z,56.60
2019-03-28T20:36:43.856Z,57.40
2019-03-28T20:39:11.050Z,57.80
2019-03-28T20:41:42.856Z,58.00
2019-03-28T20:44:19.007Z,57.10
2019-03-28T20:46:47.734Z,57.00
2019-03-28T20:52:15.046Z,58.30
2019-03-28T21:01:36.213Z,59.90
2019-03-28T21:20:04.157Z,60.80
2019-03-28T21:29:02.121Z,60.90
2019-03-28T21:46:19.484Z,60.30
2019-03-28T21:49:46.305Z,59.60
2019-03-28T21:52:14.586Z,59.70
2019-03-28T21:54:42.664Z,60.50
2019-03-28T21:57:10.887Z,60.00
2019-03-28T21:59:38.972Z,59.80
2019-03-28T22:02:07.284Z,59.30
2019-03-28T22:04:35.452Z,59.60
2019-03-28T22:07:03.588Z,59.80
2019-03-28T22:09:31.771Z,60.50
